createdAt,value
2018-06-01T04:10:08.857Z,99.99
2018-06-01T04:10:34.393Z,99.99
2018-06-01T04:11:00.056Z,99.3
2018-06-01T04:11:25.456Z,99.49
2018-06-01T04:11:50.982Z,99.59
2018-06-01T04:12:16.482Z,99.59
2018-06-01T04:12:41.923Z,99.49
2018-06-01T04:13:07.364Z,98.91
2018-06-01T04:13:32.924Z,99.11
2018-06-01T04:13:58.422Z,99.4
2018-06-01T04:14:23.880Z,98.82
2018-06-01T04:14:49.437Z,99.59
2018-06-01T04:15:14.993Z,99.68
2018-06-01T04:15:40.403Z,99.98
2018-06-01T04:16:05.892Z,99.68
2018-06-01T04:16:31.422Z,99.68
2018-06-01T04:16:56.936Z,99.78
2018-06-01T04:17:22.373Z,99.68
2018-06-01T04:17:47.914Z,99.49
2018-06-01T04:18:13.304Z,99.59
2018-06-01T04:18:38.854Z,99.59
2018-06-01T04:19:04.371Z,99.88
2018-06-01T04:19:29.830Z,99.59
2018-06-01T04:19:55.342Z,99.59
2018-06-01T04:20:20.811Z,99.88
2018-06-01T04:20:46.259Z,99.3
2018-06-01T04:21:11.686Z,99.4
2018-06-01T04:21:37.195Z,99.4
2018-06-01T04:22:02.800Z,99.54
2018-06-01T04:22:28.292Z,99.3
2018-06-01T04:22:53.860Z,99.49
2018-06-01T04:23:19.331Z,99.54
2018-06-01T04:23:44.810Z,99.44
2018-06-01T04:24:10.331Z,99.4
2018-06-01T04:24:35.760Z,98.87
2018-06-01T04:25:01.346Z,99.16
2018-06-01T04:25:26.787Z,99.35
2018-06-01T04:25:52.202Z,98.82
2018-06-01T04:26:17.771Z,99.26
2018-06-01T04:26:43.165Z,99.26
2018-06-01T04:27:08.655Z,98.87
2018-06-01T04:27:34.239Z,99.16
2018-06-01T04:27:59.673Z,99.06
2018-06-01T04:28:25.185Z,98.39
2018-06-01T04:28:50.608Z,98.77
2018-06-01T04:29:16.726Z,98.49
2018-06-01T04:29:42.209Z,98.58
2018-06-01T04:30:07.681Z,98.87
2018-06-01T04:30:33.135Z,98.29
2018-06-01T04:30:58.617Z,97.91
2018-06-01T04:31:24.089Z,98.58
2018-06-01T04:31:49.579Z,98.49
2018-06-01T04:32:15.045Z,98
2018-06-01T04:32:40.540Z,98.34
2018-06-01T04:33:06.017Z,97.86
2018-06-01T04:33:31.441Z,97.57
2018-06-01T04:33:56.923Z,97.96
2018-06-01T04:34:22.425Z,97.76
2018-06-01T04:34:47.900Z,97.67
2018-06-01T04:35:13.408Z,97.28
2018-06-01T04:35:38.847Z,97.38
2018-06-01T04:36:04.322Z,97.28
2018-06-01T04:36:29.839Z,97.47
2018-06-01T04:36:55.287Z,97.19
2018-06-01T04:37:20.815Z,97.19
2018-06-01T04:37:46.207Z,96.61
2018-06-01T04:38:11.723Z,97.09
2018-06-01T04:38:37.183Z,96.61
2018-06-01T04:39:02.829Z,96.99
2018-06-01T04:39:28.342Z,96.42
2018-06-01T04:39:53.802Z,96.51
2018-06-01T04:40:19.247Z,96.32
2018-06-01T04:40:44.790Z,96.61
2018-06-01T04:41:10.342Z,96.42
2018-06-01T04:41:35.787Z,96.7
2018-06-01T04:42:01.272Z,96.61
2018-06-01T04:42:26.735Z,95.94
2018-06-01T04:42:52.180Z,96.22
2018-06-01T04:43:17.659Z,95.84
2018-06-01T04:43:43.152Z,95.84
2018-06-01T04:44:08.655Z,95.74
2018-06-01T04:44:34.153Z,95.94
2018-06-01T04:44:59.643Z,95.94
2018-06-01T04:45:25.145Z,95.94
2018-06-01T04:45:50.592Z,96.22
2018-06-01T04:46:16.042Z,96.12
2018-06-01T04:46:41.475Z,95.94
2018-06-01T04:47:06.937Z,95.94
2018-06-01T04:47:32.449Z,95.84
2018-06-01T04:47:57.945Z,95.74
2018-06-01T04:48:23.431Z,95.98
2018-06-01T04:48:48.920Z,95.6
2018-06-01T04:49:14.431Z,95.69
2018-06-01T04:49:39.813Z,95.6
2018-06-01T04:50:05.337Z,95.6
2018-06-01T04:50:30.815Z,95.79
2018-06-01T04:50:56.310Z,95.31
2018-06-01T04:51:21.894Z,95.31
2018-06-01T04:51:47.392Z,94.54
2018-06-01T04:52:12.843Z,94.73
2018-06-01T04:52:38.340Z,94.87
2018-06-01T04:53:03.833Z,94.82
2018-06-01T04:53:29.298Z,94.39
2018-06-01T04:53:54.813Z,94.59
2018-06-01T04:54:20.325Z,94.29
2018-06-01T04:54:45.814Z,94.49
2018-06-01T04:55:11.325Z,94.29
2018-06-01T04:55:36.832Z,94.49
2018-06-01T04:56:02.381Z,94.29
2018-06-01T04:56:27.801Z,94.2
2018-06-01T04:56:53.271Z,93.72
2018-06-01T04:57:18.815Z,94.01
2018-06-01T04:57:44.281Z,93.72
2018-06-01T04:58:09.772Z,93.33
2018-06-01T04:58:35.258Z,93.24
2018-06-01T04:59:00.714Z,93.24
2018-06-01T04:59:26.192Z,92.94
2018-06-01T04:59:51.675Z,92.56
2018-06-01T05:00:17.168Z,92.66
2018-06-01T05:00:42.660Z,92.76
2018-06-01T05:01:08.117Z,92.56
2018-06-01T05:01:33.634Z,92.66
2018-06-01T05:01:59.153Z,92.22
2018-06-01T05:02:24.655Z,92.71
2018-06-01T05:02:50.192Z,92.76
2018-06-01T05:03:15.689Z,92.56
2018-06-01T05:03:41.181Z,92.66
2018-06-01T05:04:06.665Z,92.61
2018-06-01T05:04:32.228Z,91.89
2018-06-01T05:04:57.633Z,91.74
2018-06-01T05:05:23.097Z,91.64
2018-06-01T05:05:48.619Z,91.74
2018-06-01T05:06:14.069Z,91.74
2018-06-01T05:06:39.574Z,91.83
2018-06-01T05:07:05.086Z,91.64
2018-06-01T05:07:30.599Z,91.93
2018-06-01T05:07:56.105Z,91.64
2018-06-01T05:08:21.551Z,91.36
2018-06-01T05:08:47.052Z,91.41
2018-06-01T05:09:12.573Z,91.41
2018-06-01T05:09:38.061Z,91.41
2018-06-01T05:10:03.541Z,91.89
2018-06-01T05:10:29.054Z,91.89
2018-06-01T05:10:54.559Z,92.03
2018-06-01T05:11:20.045Z,91.79
2018-06-01T05:11:45.532Z,91.6
2018-06-01T05:12:11.049Z,91.79
2018-06-01T05:12:36.575Z,91.79
2018-06-01T05:13:02.028Z,91.89
2018-06-01T05:13:27.560Z,91.6
2018-06-01T05:13:53.043Z,91.02
2018-06-01T05:14:18.502Z,91.21
2018-06-01T05:14:43.960Z,91.21
2018-06-01T05:15:09.431Z,91.21
2018-06-01T05:15:34.905Z,91.6
2018-06-01T05:16:00.375Z,91.99
2018-06-01T05:16:25.833Z,91.79
2018-06-01T05:16:51.300Z,91.89
2018-06-01T05:17:16.768Z,91.89
2018-06-01T05:17:42.635Z,91.89
2018-06-01T05:18:08.036Z,91.89
2018-06-01T05:18:33.546Z,91.6
2018-06-01T05:18:59.151Z,91.5
2018-06-01T05:19:24.651Z,91.45
2018-06-01T05:19:50.148Z,91.6
2018-06-01T05:20:15.632Z,91.5
2018-06-01T05:20:41.118Z,91.89
2018-06-01T05:21:06.571Z,91.89
2018-06-01T05:21:32.020Z,91.5
2018-06-01T05:21:57.494Z,91.5
2018-06-01T05:22:23.065Z,91.79
2018-06-01T05:22:48.577Z,92.37
2018-06-01T05:23:14.001Z,92.27
2018-06-01T05:23:39.527Z,91.79
2018-06-01T05:24:05.057Z,91.79
2018-06-01T05:24:30.516Z,91.79
2018-06-01T05:24:56.011Z,91.79
2018-06-01T05:25:21.596Z,91.5
2018-06-01T05:25:47.088Z,91.41
2018-06-01T05:26:12.679Z,91.21
2018-06-01T05:26:38.223Z,91.69
2018-06-01T05:27:03.586Z,91.31
2018-06-01T05:27:29.159Z,91.79
2018-06-01T05:27:54.564Z,91.69
2018-06-01T05:28:20.009Z,91.6
2018-06-01T05:28:45.467Z,91.79
2018-06-01T05:29:10.992Z,91.6
2018-06-01T05:29:36.603Z,91.6
2018-06-01T05:30:02.069Z,91.6
2018-06-01T05:30:27.524Z,91.31
2018-06-01T05:30:53.051Z,91.99
2018-06-01T05:31:18.545Z,91.99
2018-06-01T05:31:44.022Z,92.08
2018-06-01T05:32:09.530Z,92.08
2018-06-01T05:32:35.136Z,91.89
2018-06-01T05:33:00.753Z,92.08
2018-06-01T05:33:26.255Z,91.79
2018-06-01T05:33:51.744Z,91.6
2018-06-01T05:34:17.233Z,91.79
2018-06-01T05:34:42.732Z,92.08
2018-06-01T05:35:08.277Z,91.99
2018-06-01T05:35:33.810Z,92.18
2018-06-01T05:35:59.257Z,91.89
2018-06-01T05:36:24.755Z,91.89
2018-06-01T05:36:50.269Z,92.08
2018-06-01T05:37:15.768Z,92.18
2018-06-01T05:37:41.266Z,92.08
2018-06-01T05:38:06.748Z,92.18
2018-06-01T05:38:32.252Z,91.99
2018-06-01T05:38:57.769Z,91.89
2018-06-01T05:39:23.237Z,91.69
2018-06-01T05:39:48.704Z,91.69
2018-06-01T05:40:14.175Z,91.83
2018-06-01T05:40:39.645Z,91.69
2018-06-01T05:41:05.120Z,91.79
2018-06-01T05:41:30.632Z,91.69
2018-06-01T05:42:34.342Z,91.79
2018-06-01T05:42:59.917Z,91.89
2018-06-01T05:43:25.306Z,91.79
2018-06-01T05:43:50.814Z,91.5
2018-06-01T05:44:16.365Z,91.5
2018-06-01T05:44:41.874Z,91.41
2018-06-01T05:45:07.355Z,91.41
2018-06-01T05:45:32.852Z,91.31
2018-06-01T05:45:58.325Z,91.6
2018-06-01T05:46:23.827Z,91.69
2018-06-01T05:46:49.323Z,91.79
2018-06-01T05:47:14.792Z,91.6
2018-06-01T05:47:40.288Z,91.69
2018-06-01T05:48:05.785Z,91.6
2018-06-01T05:48:31.268Z,91.6
2018-06-01T05:48:56.783Z,91.5
2018-06-01T05:49:22.230Z,91.69
2018-06-01T05:49:47.730Z,91.69
2018-06-01T05:50:13.148Z,91.89
2018-06-01T05:50:38.601Z,91.99
2018-06-01T05:51:04.090Z,91.89
2018-06-01T05:51:29.582Z,91.89
2018-06-01T05:51:55.113Z,91.6
2018-06-01T05:52:20.716Z,91.99
2018-06-01T05:52:46.339Z,91.79
2018-06-01T05:53:11.701Z,91.79
2018-06-01T05:53:37.219Z,91.99
2018-06-01T05:54:02.753Z,91.6
2018-06-01T05:54:28.312Z,91.41
2018-06-01T05:54:53.775Z,91.89
2018-06-01T05:55:19.270Z,91.89
2018-06-01T05:55:44.780Z,91.99
2018-06-01T05:56:10.321Z,91.79
2018-06-01T05:56:35.891Z,92.08
2018-06-01T05:57:39.516Z,91.99
2018-06-01T05:58:04.976Z,91.83
2018-06-01T05:58:30.478Z,91.89
2018-06-01T05:58:55.983Z,91.79
2018-06-01T05:59:21.499Z,91.74
2018-06-01T05:59:47.010Z,91.99
2018-06-01T06:00:12.590Z,91.79
2018-06-01T06:00:38.155Z,92.18
2018-06-01T06:01:03.656Z,92.22
2018-06-01T06:01:29.088Z,91.83
2018-06-01T06:01:54.596Z,92.03
2018-06-01T06:02:20.053Z,91.93
2018-06-01T06:02:45.622Z,91.74
2018-06-01T06:03:11.122Z,91.83
2018-06-01T06:04:14.698Z,91.74
2018-06-01T06:04:40.201Z,91.45
2018-06-01T06:05:05.709Z,91.36
2018-06-01T06:05:31.215Z,91.26
2018-06-01T06:05:56.735Z,91.26
2018-06-01T06:06:22.226Z,91.16
2018-06-01T06:06:47.730Z,91.06
2018-06-01T06:07:13.214Z,90.48
2018-06-01T06:07:38.698Z,90.3
2018-06-01T06:08:04.211Z,90.58
2018-06-01T06:08:29.757Z,90.58
2018-06-01T06:08:55.258Z,90.48
2018-06-01T06:09:20.826Z,90.48
2018-06-01T06:09:46.356Z,90.39
2018-06-01T06:10:11.860Z,90.58
2018-06-01T06:10:37.365Z,90.78
2018-06-01T06:11:02.897Z,90.68
2018-06-01T06:11:28.383Z,90.72
2018-06-01T06:11:53.839Z,90.1
2018-06-01T06:12:19.315Z,89.47
2018-06-01T06:12:44.795Z,88.79
2018-06-01T06:13:10.367Z,89.28
2018-06-01T06:13:35.878Z,88.99
2018-06-01T06:14:01.370Z,89.76
2018-06-01T06:14:26.865Z,89.18
2018-06-01T06:14:52.355Z,89.28
2018-06-01T06:15:50.881Z,89.42
2018-06-01T06:16:16.418Z,88.84
2018-06-01T06:16:41.895Z,88.89
2018-06-01T06:17:07.379Z,89.13
2018-06-01T06:17:32.901Z,88.84
2018-06-01T06:17:58.369Z,88.75
2018-06-01T06:18:23.857Z,88.17
2018-06-01T06:18:49.450Z,88.26
2018-06-01T06:19:14.840Z,87.78
2018-06-01T06:19:40.342Z,88.36
2018-06-01T06:20:05.810Z,88.84
2018-06-01T06:20:31.348Z,88.93
2018-06-01T06:20:56.809Z,88.45
2018-06-01T06:21:22.338Z,88.26
2018-06-01T06:21:47.849Z,87.78
2018-06-01T06:22:13.379Z,87.78
2018-06-01T06:22:38.873Z,87.68
2018-06-01T06:23:04.336Z,87.49
2018-06-01T06:23:29.826Z,87.88
2018-06-01T06:23:55.306Z,87.4
2018-06-01T06:24:20.804Z,87.2
2018-06-01T06:24:46.329Z,87.78
2018-06-01T06:25:11.816Z,86.52
2018-06-01T06:25:37.323Z,87.1
2018-06-01T06:26:02.826Z,86.96
2018-06-01T06:26:28.353Z,86.86
2018-06-01T06:26:53.812Z,87.05
2018-06-01T06:27:19.337Z,86.86
2018-06-01T06:27:44.851Z,86.76
2018-06-01T06:28:10.363Z,86.08
2018-06-01T06:28:35.871Z,86.08
2018-06-01T06:29:01.352Z,85.8
2018-06-01T06:29:26.843Z,86.08
2018-06-01T06:29:52.311Z,86.18
2018-06-01T06:30:17.884Z,86.61
2018-06-01T06:30:43.390Z,86.03
2018-06-01T06:31:08.875Z,85.74
2018-06-01T06:31:34.423Z,85.45
2018-06-01T06:31:59.883Z,84.97
2018-06-01T06:32:25.416Z,85.16
2018-06-01T06:32:50.903Z,85.64
2018-06-01T06:33:16.410Z,85.55
2018-06-01T06:33:41.880Z,85.69
2018-06-01T06:34:07.365Z,85.69
2018-06-01T06:34:32.880Z,85.3
2018-06-01T06:34:58.474Z,85.49
2018-06-01T06:35:23.974Z,85.11
2018-06-01T06:35:49.476Z,85.11
2018-06-01T06:36:14.969Z,85.01
2018-06-01T06:36:40.472Z,84.47
2018-06-01T06:37:05.974Z,84.38
2018-06-01T06:37:31.460Z,84.09
2018-06-01T06:37:56.980Z,83.61
2018-06-01T06:38:22.463Z,83.7
2018-06-01T06:38:47.975Z,83.51
2018-06-01T06:39:13.461Z,83.45
2018-06-01T06:39:39.016Z,83.16
2018-06-01T06:40:04.519Z,82.78
2018-06-01T06:40:30.021Z,81.52
2018-06-01T06:40:55.513Z,81.07
2018-06-01T06:41:21.014Z,81.23
2018-06-01T06:41:46.507Z,80.79
2018-06-01T06:42:12.082Z,80.4
2018-06-01T06:42:37.545Z,80.79
2018-06-01T06:43:03.043Z,79.91
2018-06-01T06:43:28.573Z,79.52
2018-06-01T06:43:54.246Z,79.14
2018-06-01T06:44:19.728Z,79.72
2018-06-01T06:44:45.199Z,79.52
2018-06-01T06:45:10.681Z,79.33
2018-06-01T06:45:36.175Z,78.94
2018-06-01T06:46:01.728Z,78.75
2018-06-01T06:46:27.247Z,78.75
2018-06-01T06:46:52.758Z,78.46
2018-06-01T06:47:18.231Z,78.79
2018-06-01T06:47:43.735Z,78.75
2018-06-01T06:48:09.230Z,78.56
2018-06-01T06:48:34.734Z,78.02
2018-06-01T06:49:00.228Z,78.69
2018-06-01T06:49:25.748Z,77.92
2018-06-01T06:49:51.250Z,77.92
2018-06-01T06:50:16.725Z,77.73
2018-06-01T06:50:42.207Z,77.73
2018-06-01T06:51:07.670Z,77.34
2018-06-01T06:51:33.167Z,76.76
2018-06-01T06:51:58.637Z,77.14
2018-06-01T06:52:24.117Z,77.14
2018-06-01T06:52:49.621Z,76.76
2018-06-01T06:53:15.128Z,77.24
2018-06-01T06:53:40.823Z,77.05
2018-06-01T06:54:06.610Z,77.14
2018-06-01T06:54:32.106Z,76.99
2018-06-01T06:54:57.658Z,77.05
2018-06-01T06:55:23.152Z,77.57
2018-06-01T06:55:48.631Z,77.37
2018-06-01T06:56:14.121Z,77.09
2018-06-01T06:56:39.625Z,76.51
2018-06-01T06:57:05.168Z,76.31
2018-06-01T06:57:30.617Z,76.31
2018-06-01T06:57:56.315Z,76.21
2018-06-01T06:58:21.842Z,76.89
2018-06-01T06:58:47.345Z,75.92
2018-06-01T06:59:12.826Z,75.92
2018-06-01T06:59:38.535Z,75.44
2018-06-01T07:00:04.043Z,75.63
2018-06-01T07:00:29.535Z,75.15
2018-06-01T07:00:54.989Z,75.54
2018-06-01T07:01:20.486Z,75.44
2018-06-01T07:01:46.184Z,75.92
2018-06-01T07:02:11.517Z,75.87
2018-06-01T07:02:36.989Z,75.96
2018-06-01T07:03:02.470Z,76.06
2018-06-01T07:03:28.029Z,75.87
2018-06-01T07:03:53.594Z,75.87
2018-06-01T07:04:19.128Z,75.87
2018-06-01T07:04:44.743Z,75.67
2018-06-01T07:05:10.369Z,74.8
2018-06-01T07:05:35.965Z,74.93
2018-06-01T07:06:01.627Z,74.9
2018-06-01T07:06:27.124Z,73.25
2018-06-01T07:06:52.712Z,73.38
2018-06-01T07:07:18.387Z,73.77
2018-06-01T07:07:43.845Z,73.58
2018-06-01T07:08:09.326Z,73.77
2018-06-01T07:08:34.748Z,74.06
2018-06-01T07:09:00.203Z,74.26
2018-06-01T07:09:25.807Z,74.7
2018-06-01T07:09:51.251Z,74.74
2018-06-01T07:10:16.772Z,74.64
2018-06-01T07:10:42.329Z,73.67
2018-06-01T07:11:07.682Z,73.15
2018-06-01T07:11:33.195Z,73.25
2018-06-01T07:11:58.790Z,73.05
2018-06-01T07:12:24.391Z,73.19
2018-06-01T07:12:49.797Z,73.77
2018-06-01T07:13:15.478Z,73.77
2018-06-01T07:13:41.131Z,73.77
2018-06-01T07:14:06.678Z,74.26
2018-06-01T07:14:32.186Z,74.16
2018-06-01T07:14:57.827Z,73.67
2018-06-01T07:15:23.495Z,73.28
2018-06-01T07:15:48.991Z,72.99
2018-06-01T07:16:14.664Z,73.38
2018-06-01T07:16:40.334Z,73.77
2018-06-01T07:17:06.257Z,73.48
2018-06-01T07:17:31.988Z,73.19
2018-06-01T07:17:57.967Z,73.19
2018-06-01T07:18:23.374Z,72.51
2018-06-01T07:18:48.857Z,72.12
2018-06-01T07:19:14.377Z,72.41
2018-06-01T07:19:40.113Z,72.47
2018-06-01T07:20:05.682Z,72.67
2018-06-01T07:20:31.305Z,72.86
2018-06-01T07:20:56.744Z,72.77
2018-06-01T07:21:22.229Z,72.96
2018-06-01T07:21:47.707Z,72.86
2018-06-01T07:22:13.191Z,72.86
2018-06-01T07:22:38.672Z,73.25
2018-06-01T07:23:04.121Z,73.64
2018-06-01T07:23:29.602Z,73.83
2018-06-01T07:23:55.063Z,73.35
2018-06-01T07:24:20.554Z,73.41
2018-06-01T07:24:46.063Z,73.21
2018-06-01T07:25:11.567Z,73.21
2018-06-01T07:25:37.076Z,72.92
2018-06-01T07:26:02.517Z,73.31
2018-06-01T07:26:27.996Z,73.21
2018-06-01T07:26:53.503Z,73.41
2018-06-01T07:27:18.972Z,73.79
2018-06-01T07:27:44.507Z,73.31
2018-06-01T07:28:10.011Z,73.27
2018-06-01T07:28:35.499Z,73.18
2018-06-01T07:29:00.931Z,73.18
2018-06-01T07:29:26.437Z,73.37
2018-06-01T07:29:51.905Z,73.18
2018-06-01T07:30:17.398Z,73.72
2018-06-01T07:30:42.841Z,73.53
2018-06-01T07:31:08.423Z,74.11
2018-06-01T07:31:33.858Z,74.4
2018-06-01T07:31:59.382Z,74.88
2018-06-01T07:32:24.768Z,75.17
2018-06-01T07:32:50.297Z,74.79
2018-06-01T07:33:15.696Z,75.07
2018-06-01T07:33:41.214Z,74.49
2018-06-01T07:34:06.716Z,74.3
2018-06-01T07:34:32.184Z,74.01
2018-06-01T07:34:57.638Z,74.55
2018-06-01T07:35:23.132Z,74.55
2018-06-01T07:35:48.614Z,74.4
2018-06-01T07:36:14.095Z,74.98
2018-06-01T07:36:39.619Z,74.94
2018-06-01T07:37:05.116Z,75.43
2018-06-01T07:37:30.597Z,75.62
2018-06-01T07:37:56.036Z,75.91
2018-06-01T07:38:21.545Z,75.81
2018-06-01T07:38:47.099Z,76.1
2018-06-01T07:39:12.522Z,76.78
2018-06-01T07:39:37.977Z,76.2
2018-06-01T07:40:03.999Z,75.91
2018-06-01T07:40:29.341Z,76.68
2018-06-01T07:40:54.895Z,76.59
2018-06-01T07:41:20.296Z,76.68
2018-06-01T07:41:45.831Z,77.07
2018-06-01T07:42:11.424Z,77.17
2018-06-01T07:42:37.104Z,76.97
2018-06-01T07:43:02.609Z,77.26
2018-06-01T07:43:28.061Z,77.36
2018-06-01T07:43:53.665Z,77.75
2018-06-01T07:44:19.168Z,77.75
2018-06-01T07:44:44.723Z,77.65
2018-06-01T07:45:10.262Z,77.84
2018-06-01T07:45:35.832Z,77.45
2018-06-01T07:46:01.365Z,76.49
2018-06-01T07:46:26.840Z,76.39
2018-06-01T07:46:52.407Z,76.87
2018-06-01T07:47:17.869Z,76.39
2018-06-01T07:47:43.375Z,75.87
2018-06-01T07:48:08.902Z,76.06
2018-06-01T07:48:34.460Z,76.26
2018-06-01T07:48:59.910Z,76.55
2018-06-01T07:49:25.416Z,76.06
2018-06-01T07:49:50.928Z,76.74
2018-06-01T07:50:16.420Z,77.22
2018-06-01T07:50:41.881Z,77.03
2018-06-01T07:51:07.373Z,76.93
2018-06-01T07:51:32.893Z,77.13
2018-06-01T07:51:58.354Z,77.13
2018-06-01T07:53:02.003Z,77.38
2018-06-01T07:53:27.489Z,77.09
2018-06-01T07:53:52.974Z,76.7
2018-06-01T07:54:18.510Z,77.09
2018-06-01T07:54:43.942Z,76.9
2018-06-01T07:55:09.385Z,76.8
2018-06-01T07:55:34.904Z,77.28
2018-06-01T07:56:00.387Z,77.67
2018-06-01T07:56:25.834Z,77.38
2018-06-01T07:56:51.306Z,77.67
2018-06-01T07:57:16.796Z,78.41
2018-06-01T07:57:42.240Z,77.44
2018-06-01T07:58:07.691Z,78.11
2018-06-01T07:58:33.162Z,79.27
2018-06-01T07:58:58.628Z,79.08
2018-06-01T07:59:24.105Z,79.56
2018-06-01T07:59:49.580Z,80.33
2018-06-01T08:00:15.110Z,79.75
2018-06-01T08:00:40.584Z,79.52
2018-06-01T08:01:06.076Z,79.95
2018-06-01T08:01:31.537Z,80.2
2018-06-01T08:01:57.012Z,80.58
2018-06-01T08:02:22.512Z,80.39
2018-06-01T08:02:48.047Z,81.55
2018-06-01T08:03:13.477Z,81.74
2018-06-01T08:03:39.006Z,81.55
2018-06-01T08:04:04.464Z,81.35
2018-06-01T08:04:29.960Z,81.65
2018-06-01T08:04:55.422Z,82.42
2018-06-01T08:05:20.930Z,83
2018-06-01T08:05:46.480Z,83.73
2018-06-01T08:06:11.975Z,84.35
2018-06-01T08:06:37.416Z,84.69
2018-06-01T08:07:02.872Z,84.89
2018-06-01T08:07:28.389Z,84.98
2018-06-01T08:07:54.015Z,85.46
2018-06-01T08:08:19.668Z,86.04
2018-06-01T08:08:45.049Z,86.24
2018-06-01T08:09:10.593Z,86.14
2018-06-01T08:09:35.981Z,86.52
2018-06-01T08:10:01.461Z,86.77
2018-06-01T08:10:26.963Z,87.16
2018-06-01T08:10:52.432Z,87.01
2018-06-01T08:11:17.916Z,86.58
2018-06-01T08:11:43.371Z,87.06
2018-06-01T08:12:08.837Z,87.35
2018-06-01T08:12:34.357Z,87.64
2018-06-01T08:12:59.761Z,87.54
2018-06-01T08:13:25.249Z,87.74
2018-06-01T08:13:50.827Z,88.02
2018-06-01T08:14:16.365Z,87.93
2018-06-01T08:14:42.130Z,87.83
2018-06-01T08:15:08.647Z,87.64
2018-06-01T08:15:33.681Z,87.64
2018-06-01T08:15:59.073Z,87.35
2018-06-01T08:16:24.717Z,87.16
2018-06-01T08:16:50.204Z,87.35
2018-06-01T08:17:15.771Z,87.45
2018-06-01T08:17:41.723Z,87.83
2018-06-01T08:18:07.245Z,87.74
2018-06-01T08:18:32.762Z,87.45
2018-06-01T08:18:58.220Z,86.87
2018-06-01T08:19:23.748Z,87.93
2018-06-01T08:19:49.325Z,87.45
2018-06-01T08:20:14.835Z,87.16
2018-06-01T08:20:40.253Z,87.35
2018-06-01T08:21:05.749Z,87.35
2018-06-01T08:21:31.453Z,87.16
2018-06-01T08:21:56.969Z,87.35
2018-06-01T08:22:23.087Z,87.54
2018-06-01T08:22:48.698Z,87.74
2018-06-01T08:23:14.161Z,87.93
2018-06-01T08:23:39.824Z,87.64
2018-06-01T08:24:05.430Z,87.59
2018-06-01T08:24:30.982Z,87.64
2018-06-01T08:24:56.443Z,87.54
2018-06-01T08:25:21.922Z,87.68
2018-06-01T08:25:47.417Z,87.49
2018-06-01T08:26:12.907Z,87.59
2018-06-01T08:26:38.462Z,87.4
2018-06-01T08:27:04.119Z,87.4
2018-06-01T08:27:29.556Z,87.4
2018-06-01T08:27:55.316Z,87.4
2018-06-01T08:28:21.386Z,86.82
2018-06-01T08:28:47.127Z,86.91
2018-06-01T08:29:13.036Z,86.33
2018-06-01T08:29:38.567Z,86.33
2018-06-01T08:30:04.038Z,86.82
2018-06-01T08:30:29.523Z,86.52
2018-06-01T08:30:55.530Z,86.43
2018-06-01T08:31:20.792Z,86.62
2018-06-01T08:31:46.727Z,85.94
2018-06-01T08:32:12.486Z,85.85
2018-06-01T08:32:37.715Z,85.75
2018-06-01T08:33:03.146Z,86.14
2018-06-01T08:33:28.663Z,86.04
2018-06-01T08:33:54.588Z,85.85
2018-06-01T08:34:20.129Z,86.1
2018-06-01T08:34:45.719Z,86.33
2018-06-01T08:35:11.217Z,86.52
2018-06-01T08:35:36.655Z,86.43
2018-06-01T08:36:02.412Z,86.24
2018-06-01T08:36:27.861Z,85.85
2018-06-01T08:36:53.376Z,85.56
2018-06-01T08:37:18.860Z,85.94
2018-06-01T08:37:44.598Z,85.94
2018-06-01T08:38:09.986Z,85.61
2018-06-01T08:38:35.524Z,86.14
2018-06-01T08:39:01.155Z,85.37
2018-06-01T08:39:26.674Z,85.66
2018-06-01T08:39:52.513Z,85.27
2018-06-01T08:40:18.125Z,85.75
2018-06-01T08:40:44.004Z,85.37
2018-06-01T08:41:09.361Z,85.27
2018-06-01T08:41:34.935Z,85.94
2018-06-01T08:42:00.427Z,85.42
2018-06-01T08:42:25.944Z,85.91
2018-06-01T08:42:51.940Z,85.56
2018-06-01T08:43:17.256Z,85.66
2018-06-01T08:43:42.806Z,85.66
2018-06-01T08:44:08.239Z,85.66
2018-06-01T08:44:33.664Z,86.33
2018-06-01T08:44:59.224Z,85.66
2018-06-01T08:45:24.648Z,85.56
2018-06-01T08:45:50.119Z,85.46
2018-06-01T08:46:15.613Z,85.52
2018-06-01T08:46:41.211Z,85.61
2018-06-01T08:47:06.731Z,85.94
2018-06-01T08:47:32.253Z,86.04
2018-06-01T08:47:57.813Z,85.75
2018-06-01T08:48:23.263Z,86
2018-06-01T08:48:48.857Z,86.19
2018-06-01T08:49:14.523Z,86.19
2018-06-01T08:49:40.022Z,86
2018-06-01T08:50:06.628Z,86.39
2018-06-01T08:50:32.184Z,86.52
2018-06-01T08:50:57.644Z,86.77
2018-06-01T08:51:23.293Z,86.96
2018-06-01T08:51:48.872Z,86.68
2018-06-01T08:52:14.402Z,87.06
2018-06-01T08:52:40.068Z,87.06
2018-06-01T08:53:05.558Z,86.96
2018-06-01T08:53:31.153Z,86.68
2018-06-01T08:53:56.697Z,87.64
2018-06-01T08:54:22.167Z,87.16
2018-06-01T08:54:47.871Z,86.96
2018-06-01T08:55:13.434Z,87.26
2018-06-01T08:55:38.921Z,88.12
2018-06-01T08:56:04.582Z,87.93
2018-06-01T08:56:30.286Z,88.31
2018-06-01T08:56:55.872Z,88.51
2018-06-01T08:57:21.560Z,88.99
2018-06-01T08:57:47.104Z,88.41
2018-06-01T08:58:12.641Z,88.51
2018-06-01T08:58:38.339Z,88.31
2018-06-01T08:59:04.017Z,88.6
2018-06-01T08:59:29.527Z,88.51
2018-06-01T08:59:55.068Z,88.41
2018-06-01T09:00:20.626Z,88.31
2018-06-01T09:00:46.078Z,88.41
2018-06-01T09:01:11.719Z,88.6
2018-06-01T09:01:37.119Z,88.89
2018-06-01T09:02:02.670Z,89.18
2018-06-01T09:02:28.211Z,89.09
2018-06-01T09:02:53.637Z,89.37
2018-06-01T09:03:19.212Z,88.89
2018-06-01T09:03:44.666Z,88.6
2018-06-01T09:04:10.163Z,88.99
2018-06-01T09:04:35.778Z,88.51
2018-06-01T09:05:01.606Z,88.41
2018-06-01T09:05:27.191Z,88.41
2018-06-01T09:05:52.635Z,88.31
2018-06-01T09:06:18.167Z,88.12
2018-06-01T09:06:43.596Z,87.93
2018-06-01T09:07:09.145Z,88.12
2018-06-01T09:07:34.579Z,87.74
2018-06-01T09:08:00.081Z,87.79
2018-06-01T09:08:25.519Z,88.02
2018-06-01T09:08:50.994Z,88.51
2018-06-01T09:09:16.467Z,88.99
2018-06-01T09:09:41.980Z,88.75
2018-06-01T09:10:07.499Z,89.33
2018-06-01T09:10:32.962Z,89.47
2018-06-01T09:10:58.502Z,89.04
2018-06-01T09:11:23.940Z,89.76
2018-06-01T09:11:49.432Z,89.76
2018-06-01T09:12:14.935Z,89.43
2018-06-01T09:12:40.352Z,89.28
2018-06-01T09:13:05.814Z,90
2018-06-01T09:13:31.285Z,88.37
2018-06-01T09:13:56.747Z,88.85
2018-06-01T09:14:22.245Z,89.23
2018-06-01T09:14:47.722Z,88.46
2018-06-01T09:15:13.194Z,87.79
2018-06-01T09:15:38.677Z,87.7
2018-06-01T09:16:04.167Z,87.98
2018-06-01T09:16:29.654Z,88.37
2018-06-01T09:16:55.159Z,89.04
2018-06-01T09:17:20.596Z,89.04
2018-06-01T09:17:46.165Z,89.04
2018-06-01T09:18:11.688Z,89.04
2018-06-01T09:18:37.194Z,89.04
2018-06-01T09:19:02.644Z,89.81
2018-06-01T09:19:28.107Z,89.72
2018-06-01T09:19:53.593Z,89.43
2018-06-01T09:20:19.050Z,89.81
2018-06-01T09:20:44.528Z,90.3
2018-06-01T09:21:10.048Z,91.16
2018-06-01T09:21:35.481Z,92.03
2018-06-01T09:22:01.015Z,92.61
2018-06-01T09:22:26.499Z,94.06
2018-06-01T09:22:51.991Z,95.07
2018-06-01T09:23:17.498Z,94.87
2018-06-01T09:23:42.995Z,95.36
2018-06-01T09:24:08.462Z,94.97
2018-06-01T09:24:34.016Z,94.78
2018-06-01T09:24:59.587Z,94.78
2018-06-01T09:25:25.073Z,95.16
2018-06-01T09:25:50.569Z,95.74
2018-06-01T09:26:16.065Z,95.94
2018-06-01T09:26:41.584Z,95.94
2018-06-01T09:27:07.088Z,96.22
2018-06-01T09:27:32.623Z,96.51
2018-06-01T09:27:58.115Z,97.09
2018-06-01T09:28:23.600Z,97.28
2018-06-01T09:28:49.125Z,97.96
2018-06-01T09:29:14.593Z,98.44
2018-06-01T09:29:40.110Z,99.26
2018-06-01T09:30:05.600Z,98.97
2018-06-01T09:30:31.112Z,99.98
2018-06-01T09:30:56.657Z,99.99
2018-06-01T09:31:22.120Z,99.99
2018-06-01T09:31:47.630Z,99.99
2018-06-01T09:32:51.254Z,99.99
2018-06-01T09:33:16.758Z,99.99
2018-06-01T09:33:42.251Z,99.99
2018-06-01T09:34:07.751Z,99.99
2018-06-01T09:34:33.249Z,99.99
2018-06-01T09:34:58.760Z,99.99
2018-06-01T09:35:24.254Z,99.99
2018-06-01T09:35:49.737Z,99.99
2018-06-01T09:36:15.246Z,99.99
2018-06-01T09:36:40.776Z,99.99
2018-06-01T09:37:06.258Z,99.99
2018-06-01T09:37:31.735Z,99.99
2018-06-01T09:37:57.217Z,99.99
2018-06-01T09:39:05.898Z,99.99
2018-06-01T09:39:31.406Z,99.99
2018-06-01T09:39:56.927Z,99.99
2018-06-01T09:40:22.417Z,99.99
2018-06-01T09:40:47.925Z,99.99
2018-06-01T09:41:13.423Z,99.99
2018-06-01T09:41:38.957Z,99.99
2018-06-01T09:42:04.471Z,99.99
2018-06-01T09:42:29.949Z,99.99
2018-06-01T09:42:55.447Z,99.99
2018-06-01T09:43:20.928Z,99.99
2018-06-01T09:43:46.440Z,99.99
2018-06-01T09:44:11.947Z,99.99